solucionavirus.com alexa rank chart, solucionavirus.com alexa rank daily changes

solucionavirus.com alexa rank chart, solucionavirus.com alexa rank daily changes

solucionavirus.com
Actual rank:
300 299

RANK HISTORY

Date Rank Diff
2017/12/18 300 299 +2 607
2017/12/17 297 692 +4 876
2017/12/16 292 816 +1 362
2017/12/15 291 454 +1 677
2017/12/14 289 777 +924
2017/12/13 288 853 -6 612
2017/12/12 295 465 -7 848
2017/12/11 303 313 -12 225
2017/12/10 315 538 +389
2017/12/09 315 149 -3 374
2017/12/08 318 523 -19 694
2017/12/07 338 217 +3 925
2017/12/06 334 292 -527
2017/12/05 334 819 -10 091
2017/12/04 344 910 +19 707
2017/12/03 325 203 -6 132
2017/12/02 331 335 -5 204
2017/12/01 336 539 -2 355
2017/11/30 338 894 -6 220
2017/11/29 345 114 -5 786
2017/11/28 350 900 -12 490
2017/11/27 363 390 +336
2017/11/26 363 054 +2 401
2017/11/25 360 653 +5 651
2017/11/24 355 002 +6 840
2017/11/23 348 162 -6 888
2017/11/22 355 050 -5 615
2017/11/21 360 665 -7 626
2017/11/20 368 291 +3 109
2017/11/19 365 182 -2 719
2017/11/18 367 901 -236
2017/11/17 368 137 +6 319
2017/11/16 361 818 +2 746
2017/11/15 359 072 -615
2017/11/14 359 687 +8 551
2017/11/13 351 136 +7 846
2017/11/12 343 290 +6 678
2017/11/11 336 612 +527
2017/11/10 336 085 +11 051
2017/11/09 325 034 -4 203
2017/11/08 329 237 +10 971
2017/11/07 318 266 -2 823
2017/11/06 321 089 -1 555
2017/11/05 322 644 -8 296
2017/11/04 330 940 -15 046
2017/11/03 345 986 -7 741
2017/11/02 353 727 +5 466
2017/11/01 348 261 +378
2017/10/31 347 883 +1 227
2017/10/30 346 656 -9 546
2017/10/29 356 202 +7 069
2017/10/28 349 133 -2 719
2017/10/27 351 852 -3 404
2017/10/26 355 256 -10 181
2017/10/25 365 437 -8 673
2017/10/24 374 110 -7 378
2017/10/23 381 488 +2 521
2017/10/22 378 967 -4 440
2017/10/21 383 407 -5 654
2017/10/20 389 061 -9 034
2017/10/19 398 095

WIDGET FOR YOUR SITE

DOMAINS WITH THE NEAREST RANK

Domain Rank
oxfordsecondary.co.uk 300 294
committeetodefendthepresident.com 300 295
benq.ru 300 296
koe.org.gr 300 297
arena80.it 300 298
solucionavirus.com 300 299
yourz.com.tw 300 300
439pk.com 300 301
logic-templates.com 300 302
insideworldfootball.com 300 303
miedziowe.pl 300 304

DOMAINS WITH THE NEAREST RANK BY TLD .com

Domain Rank
5dollardinners.com 300 286
downloadaplikasiguru.com 300 287
quillandpad.com 300 291
vfs.com 300 293
committeetodefendthepresident.com 300 295
solucionavirus.com 300 299
439pk.com 300 301
logic-templates.com 300 302
insideworldfootball.com 300 303
bookofmatches.com 300 306
gg-robot.com 300 308